MET'MAP v2.0
soon released !

Expected late october,
this new version will be
more efficient, smarter,
and hosted on a brand new
server x3 powerfull...
...and still free !


Not compatible ?
Try the mobile version !

LOG IN : | Subscribe | Disclaimer | Who is Orbifly ? |
ICAO code :

TAF - EGQL RAF Leuchars - 26 Jan 2020 00:09 UTC - Data Source NOAA   


- Airport Elevation : 38 ft
- IATA code : ADX
- No reported NOTAMs.


EGQL - RAF Leuchars

Latest METAR recorded : 2015/08/11 07:50 EGQL 110750Z 25012KT 9999 FEW034 15/11 Q1016 BLU
TAF TAF EGQL
Valid from the 25 at 21:00 until the 26 at 06:00 UTC


251911Z 2521/2606 23012KT 9999 BKN020
PROB40
TEMPO 2521/2606 BKN025
TEMPO 2600/2606 21015G25KT

Source NOAA


MET'MAP, your aeronautical weather chart ! - Copyright ORBIFLY December 2007

Programming & Development : Alexandra Zaïnal
Co-Developer : Marc-Olivier Méhu
Technical & hardware support : Manuel Goepfert
Concept & Financing : Baudouin d'Aumeries